sensor_id;sensor_type;location;lat;lon;timestamp;temperature;humidity
25450;DHT22;13371;52.080;5.624;2023-12-14T00:01:44;7.50;99.90
25450;DHT22;13371;52.080;5.624;2023-12-14T00:04:11;7.50;99.90
25450;DHT22;13371;52.080;5.624;2023-12-14T00:06:37;7.50;99.90
25450;DHT22;13371;52.080;5.624;2023-12-14T00:09:02;7.40;99.90
25450;DHT22;13371;52.080;5.624;2023-12-14T00:11:29;7.50;99.90
25450;DHT22;13371;52.080;5.624;2023-12-14T00:13:54;7.50;99.90
25450;DHT22;13371;52.080;5.624;2023-12-14T00:16:20;7.50;99.90
25450;DHT22;13371;52.080;5.624;2023-12-14T00:18:46;7.30;99.90
25450;DHT22;13371;52.080;5.624;2023-12-14T00:21:11;7.40;99.90
25450;DHT22;13371;52.080;5.624;2023-12-14T00:23:37;7.30;99.90
25450;DHT22;13371;52.080;5.624;2023-12-14T00:26:02;7.40;99.90
25450;DHT22;13371;52.080;5.624;2023-12-14T00:28:28;7.30;99.90
25450;DHT22;13371;52.080;5.624;2023-12-14T00:30:54;7.60;99.90
25450;DHT22;13371;52.080;5.624;2023-12-14T00:33:19;7.50;99.90
25450;DHT22;13371;52.080;5.624;2023-12-14T00:35:45;7.50;99.90
25450;DHT22;13371;52.080;5.624;2023-12-14T00:38:10;7.50;99.90
25450;DHT22;13371;52.080;5.624;2023-12-14T00:40:36;7.30;99.90
25450;DHT22;13371;52.080;5.624;2023-12-14T00:43:01;7.40;99.90
25450;DHT22;13371;52.080;5.624;2023-12-14T00:45:27;7.60;99.90
25450;DHT22;13371;52.080;5.624;2023-12-14T00:47:52;7.70;99.90
25450;DHT22;13371;52.080;5.624;2023-12-14T00:50:18;7.60;99.90
25450;DHT22;13371;52.080;5.624;2023-12-14T00:52:43;7.60;99.90
25450;DHT22;13371;52.080;5.624;2023-12-14T00:55:09;7.60;99.90
25450;DHT22;13371;52.080;5.624;2023-12-14T00:57:34;7.50;99.90
25450;DHT22;13371;52.080;5.624;2023-12-14T01:00:00;7.30;99.90
25450;DHT22;13371;52.080;5.624;2023-12-14T01:02:26;7.10;99.90
25450;DHT22;13371;52.080;5.624;2023-12-14T01:04:51;7.10;99.90
25450;DHT22;13371;52.080;5.624;2023-12-14T01:07:17;7.30;99.90
25450;DHT22;13371;52.080;5.624;2023-12-14T01:09:42;7.30;99.90
25450;DHT22;13371;52.080;5.624;2023-12-14T01:12:08;7.40;99.90
25450;DHT22;13371;52.080;5.624;2023-12-14T01:14:33;7.50;99.90
25450;DHT22;13371;52.080;5.624;2023-12-14T01:17:00;7.70;99.90
25450;DHT22;13371;52.080;5.624;2023-12-14T01:19:25;7.70;99.90
25450;DHT22;13371;52.080;5.624;2023-12-14T01:21:51;7.60;99.90
25450;DHT22;13371;52.080;5.624;2023-12-14T01:24:17;7.70;99.90
25450;DHT22;13371;52.080;5.624;2023-12-14T01:26:42;7.90;99.90
25450;DHT22;13371;52.080;5.624;2023-12-14T01:29:08;7.90;99.90
25450;DHT22;13371;52.080;5.624;2023-12-14T01:31:33;8.10;99.90
25450;DHT22;13371;52.080;5.624;2023-12-14T01:33:59;8.10;99.90
25450;DHT22;13371;52.080;5.624;2023-12-14T01:36:26;8.00;99.90
25450;DHT22;13371;52.080;5.624;2023-12-14T01:38:51;8.00;99.90
25450;DHT22;13371;52.080;5.624;2023-12-14T01:41:18;8.00;99.90
25450;DHT22;13371;52.080;5.624;2023-12-14T01:43:44;8.10;99.90
25450;DHT22;13371;52.080;5.624;2023-12-14T01:46:09;8.30;99.90
25450;DHT22;13371;52.080;5.624;2023-12-14T01:48:35;8.00;99.90
25450;DHT22;13371;52.080;5.624;2023-12-14T01:51:01;7.80;99.90
25450;DHT22;13371;52.080;5.624;2023-12-14T01:53:26;7.70;99.90
25450;DHT22;13371;52.080;5.624;2023-12-14T01:55:52;7.80;99.90
25450;DHT22;13371;52.080;5.624;2023-12-14T01:58:18;7.60;99.90
25450;DHT22;13371;52.080;5.624;2023-12-14T02:03:35;7.60;99.90
25450;DHT22;13371;52.080;5.624;2023-12-14T02:06:00;7.70;99.90
25450;DHT22;13371;52.080;5.624;2023-12-14T02:08:27;8.00;99.90
25450;DHT22;13371;52.080;5.624;2023-12-14T02:10:53;8.00;99.90
25450;DHT22;13371;52.080;5.624;2023-12-14T02:13:18;7.80;99.90
25450;DHT22;13371;52.080;5.624;2023-12-14T02:15:44;7.90;99.90
25450;DHT22;13371;52.080;5.624;2023-12-14T02:18:09;7.90;99.90
25450;DHT22;13371;52.080;5.624;2023-12-14T02:20:35;7.60;99.90
25450;DHT22;13371;52.080;5.624;2023-12-14T02:23:01;7.70;99.90
25450;DHT22;13371;52.080;5.624;2023-12-14T02:25:27;7.80;99.90
25450;DHT22;13371;52.080;5.624;2023-12-14T02:27:52;8.10;99.90
25450;DHT22;13371;52.080;5.624;2023-12-14T02:30:18;8.00;99.90
25450;DHT22;13371;52.080;5.624;2023-12-14T02:32:44;8.20;99.90
25450;DHT22;13371;52.080;5.624;2023-12-14T02:35:09;8.40;99.90
25450;DHT22;13371;52.080;5.624;2023-12-14T02:37:36;8.50;99.90
25450;DHT22;13371;52.080;5.624;2023-12-14T02:40:03;8.30;99.90
25450;DHT22;13371;52.080;5.624;2023-12-14T02:42:29;8.50;99.90
25450;DHT22;13371;52.080;5.624;2023-12-14T02:44:56;8.50;99.90
25450;DHT22;13371;52.080;5.624;2023-12-14T02:47:22;8.60;99.90
25450;DHT22;13371;52.080;5.624;2023-12-14T02:49:47;8.50;99.90
25450;DHT22;13371;52.080;5.624;2023-12-14T02:52:13;8.40;99.90
25450;DHT22;13371;52.080;5.624;2023-12-14T02:54:38;8.40;99.90
25450;DHT22;13371;52.080;5.624;2023-12-14T02:57:04;8.20;99.90
25450;DHT22;13371;52.080;5.624;2023-12-14T02:59:30;8.50;99.90
25450;DHT22;13371;52.080;5.624;2023-12-14T03:01:55;8.60;99.90
25450;DHT22;13371;52.080;5.624;2023-12-14T03:04:21;8.40;99.90
25450;DHT22;13371;52.080;5.624;2023-12-14T03:06:46;8.60;99.90
25450;DHT22;13371;52.080;5.624;2023-12-14T03:09:12;8.70;99.90
25450;DHT22;13371;52.080;5.624;2023-12-14T03:11:37;8.70;99.90
25450;DHT22;13371;52.080;5.624;2023-12-14T03:14:03;8.70;99.90
25450;DHT22;13371;52.080;5.624;2023-12-14T03:16:29;8.70;99.90
25450;DHT22;13371;52.080;5.624;2023-12-14T03:18:54;8.60;99.90
25450;DHT22;13371;52.080;5.624;2023-12-14T03:21:22;8.60;99.90
25450;DHT22;13371;52.080;5.624;2023-12-14T03:23:48;8.60;99.90
25450;DHT22;13371;52.080;5.624;2023-12-14T03:26:13;8.60;99.90
25450;DHT22;13371;52.080;5.624;2023-12-14T03:28:39;8.50;99.90
25450;DHT22;13371;52.080;5.624;2023-12-14T03:31:04;8.60;99.90
25450;DHT22;13371;52.080;5.624;2023-12-14T03:33:30;8.60;99.90
25450;DHT22;13371;52.080;5.624;2023-12-14T03:35:56;8.50;99.90
25450;DHT22;13371;52.080;5.624;2023-12-14T03:38:22;8.50;99.90
25450;DHT22;13371;52.080;5.624;2023-12-14T03:40:47;8.50;99.90
25450;DHT22;13371;52.080;5.624;2023-12-14T03:43:13;8.50;99.90
25450;DHT22;13371;52.080;5.624;2023-12-14T03:45:38;8.30;99.90
25450;DHT22;13371;52.080;5.624;2023-12-14T03:48:04;8.20;99.90
25450;DHT22;13371;52.080;5.624;2023-12-14T03:50:29;8.10;99.90
25450;DHT22;13371;52.080;5.624;2023-12-14T03:52:55;8.30;99.90
25450;DHT22;13371;52.080;5.624;2023-12-14T03:55:20;8.30;99.90
25450;DHT22;13371;52.080;5.624;2023-12-14T03:57:46;8.40;99.90
25450;DHT22;13371;52.080;5.624;2023-12-14T04:00:13;8.50;99.90
25450;DHT22;13371;52.080;5.624;2023-12-14T04:02:39;8.30;99.90
25450;DHT22;13371;52.080;5.624;2023-12-14T04:05:06;8.00;99.90
25450;DHT22;13371;52.080;5.624;2023-12-14T04:07:35;7.80;99.90
25450;DHT22;13371;52.080;5.624;2023-12-14T04:10:01;7.70;99.90
25450;DHT22;13371;52.080;5.624;2023-12-14T04:12:26;7.80;99.90
25450;DHT22;13371;52.080;5.624;2023-12-14T04:14:52;7.80;99.90
25450;DHT22;13371;52.080;5.624;2023-12-14T04:17:17;7.80;99.90
25450;DHT22;13371;52.080;5.624;2023-12-14T04:19:43;7.70;99.90
25450;DHT22;13371;52.080;5.624;2023-12-14T04:22:08;7.80;99.90
25450;DHT22;13371;52.080;5.624;2023-12-14T04:24:34;7.80;99.90
25450;DHT22;13371;52.080;5.624;2023-12-14T04:27:00;8.00;99.90
25450;DHT22;13371;52.080;5.624;2023-12-14T04:29:25;8.10;99.90
25450;DHT22;13371;52.080;5.624;2023-12-14T04:31:51;8.10;99.90
25450;DHT22;13371;52.080;5.624;2023-12-14T04:34:18;8.40;99.90
25450;DHT22;13371;52.080;5.624;2023-12-14T04:36:45;8.10;99.90
25450;DHT22;13371;52.080;5.624;2023-12-14T04:39:11;8.30;99.90
25450;DHT22;13371;52.080;5.624;2023-12-14T04:41:37;8.40;99.90
25450;DHT22;13371;52.080;5.624;2023-12-14T04:44:03;8.20;99.90
25450;DHT22;13371;52.080;5.624;2023-12-14T04:46:28;8.00;99.90
25450;DHT22;13371;52.080;5.624;2023-12-14T04:48:55;8.20;99.90
25450;DHT22;13371;52.080;5.624;2023-12-14T04:51:20;8.10;99.90
25450;DHT22;13371;52.080;5.624;2023-12-14T04:53:46;8.30;99.90
25450;DHT22;13371;52.080;5.624;2023-12-14T04:56:12;8.20;99.90
25450;DHT22;13371;52.080;5.624;2023-12-14T04:58:39;8.60;99.90
25450;DHT22;13371;52.080;5.624;2023-12-14T05:01:06;8.40;99.90
25450;DHT22;13371;52.080;5.624;2023-12-14T05:03:32;8.50;99.90
25450;DHT22;13371;52.080;5.624;2023-12-14T05:05:58;8.40;99.90
25450;DHT22;13371;52.080;5.624;2023-12-14T05:08:24;8.40;99.90
25450;DHT22;13371;52.080;5.624;2023-12-14T05:10:49;8.20;99.90
25450;DHT22;13371;52.080;5.624;2023-12-14T05:13:15;8.30;99.90
25450;DHT22;13371;52.080;5.624;2023-12-14T05:15:41;8.10;99.90
25450;DHT22;13371;52.080;5.624;2023-12-14T05:18:07;7.90;99.90
25450;DHT22;13371;52.080;5.624;2023-12-14T05:20:32;8.10;99.90
25450;DHT22;13371;52.080;5.624;2023-12-14T05:22:58;8.20;99.90
25450;DHT22;13371;52.080;5.624;2023-12-14T05:25:24;8.10;99.90
25450;DHT22;13371;52.080;5.624;2023-12-14T05:27:49;8.10;99.90
25450;DHT22;13371;52.080;5.624;2023-12-14T05:30:15;8.50;99.90
25450;DHT22;13371;52.080;5.624;2023-12-14T05:32:40;8.70;99.90
25450;DHT22;13371;52.080;5.624;2023-12-14T05:35:06;8.70;99.90
25450;DHT22;13371;52.080;5.624;2023-12-14T05:37:32;8.80;99.90
25450;DHT22;13371;52.080;5.624;2023-12-14T05:39:57;8.90;99.90
25450;DHT22;13371;52.080;5.624;2023-12-14T05:42:23;8.70;99.90
25450;DHT22;13371;52.080;5.624;2023-12-14T05:44:48;8.80;99.90
25450;DHT22;13371;52.080;5.624;2023-12-14T05:47:14;8.60;99.90
25450;DHT22;13371;52.080;5.624;2023-12-14T05:49:43;8.70;99.90
25450;DHT22;13371;52.080;5.624;2023-12-14T05:52:09;8.40;99.90
25450;DHT22;13371;52.080;5.624;2023-12-14T05:54:39;8.50;99.90
25450;DHT22;13371;52.080;5.624;2023-12-14T05:57:07;8.60;99.90
25450;DHT22;13371;52.080;5.624;2023-12-14T05:59:33;8.60;99.90
25450;DHT22;13371;52.080;5.624;2023-12-14T06:01:59;8.50;99.90
25450;DHT22;13371;52.080;5.624;2023-12-14T06:04:26;8.60;99.90
25450;DHT22;13371;52.080;5.624;2023-12-14T06:06:52;8.30;99.90
25450;DHT22;13371;52.080;5.624;2023-12-14T06:09:18;8.10;99.90
25450;DHT22;13371;52.080;5.624;2023-12-14T06:11:47;8.10;99.90
25450;DHT22;13371;52.080;5.624;2023-12-14T06:14:12;7.90;99.90
25450;DHT22;13371;52.080;5.624;2023-12-14T06:16:38;7.70;99.90
25450;DHT22;13371;52.080;5.624;2023-12-14T06:19:03;7.70;99.90
25450;DHT22;13371;52.080;5.624;2023-12-14T06:21:29;7.70;99.90
25450;DHT22;13371;52.080;5.624;2023-12-14T06:23:58;8.00;99.90
25450;DHT22;13371;52.080;5.624;2023-12-14T06:26:24;8.20;99.90
25450;DHT22;13371;52.080;5.624;2023-12-14T06:28:50;8.10;99.90
25450;DHT22;13371;52.080;5.624;2023-12-14T06:31:17;8.10;99.90
25450;DHT22;13371;52.080;5.624;2023-12-14T06:33:43;8.40;99.90
25450;DHT22;13371;52.080;5.624;2023-12-14T06:36:08;8.40;99.90
25450;DHT22;13371;52.080;5.624;2023-12-14T06:38:34;8.20;99.90
25450;DHT22;13371;52.080;5.624;2023-12-14T06:41:01;8.10;99.90
25450;DHT22;13371;52.080;5.624;2023-12-14T06:43:27;7.70;99.90
25450;DHT22;13371;52.080;5.624;2023-12-14T06:45:53;7.60;99.90
25450;DHT22;13371;52.080;5.624;2023-12-14T06:48:20;7.60;99.90
25450;DHT22;13371;52.080;5.624;2023-12-14T06:50:46;8.10;99.90
25450;DHT22;13371;52.080;5.624;2023-12-14T06:53:11;8.30;99.90
25450;DHT22;13371;52.080;5.624;2023-12-14T06:55:37;8.40;99.90
25450;DHT22;13371;52.080;5.624;2023-12-14T06:58:02;8.20;99.90
25450;DHT22;13371;52.080;5.624;2023-12-14T07:00:28;8.00;99.90
25450;DHT22;13371;52.080;5.624;2023-12-14T07:02:55;8.20;99.90
25450;DHT22;13371;52.080;5.624;2023-12-14T07:05:20;8.00;99.90
25450;DHT22;13371;52.080;5.624;2023-12-14T07:07:46;8.00;99.90
25450;DHT22;13371;52.080;5.624;2023-12-14T07:10:11;8.00;99.90
25450;DHT22;13371;52.080;5.624;2023-12-14T07:12:37;8.10;99.90
25450;DHT22;13371;52.080;5.624;2023-12-14T07:15:03;8.00;99.90
25450;DHT22;13371;52.080;5.624;2023-12-14T07:17:28;8.00;99.90
25450;DHT22;13371;52.080;5.624;2023-12-14T07:19:54;8.00;99.90
25450;DHT22;13371;52.080;5.624;2023-12-14T07:22:19;7.80;99.90
25450;DHT22;13371;52.080;5.624;2023-12-14T07:24:45;7.80;99.90
25450;DHT22;13371;52.080;5.624;2023-12-14T07:27:10;8.00;99.90
25450;DHT22;13371;52.080;5.624;2023-12-14T07:29:36;8.00;99.90
25450;DHT22;13371;52.080;5.624;2023-12-14T07:32:02;7.70;99.90
25450;DHT22;13371;52.080;5.624;2023-12-14T07:34:27;7.80;99.90
25450;DHT22;13371;52.080;5.624;2023-12-14T07:36:54;7.90;99.90
25450;DHT22;13371;52.080;5.624;2023-12-14T07:39:19;7.90;99.90
25450;DHT22;13371;52.080;5.624;2023-12-14T07:41:45;8.10;99.90
25450;DHT22;13371;52.080;5.624;2023-12-14T07:44:10;8.20;99.90
25450;DHT22;13371;52.080;5.624;2023-12-14T07:46:36;8.20;99.90
25450;DHT22;13371;52.080;5.624;2023-12-14T07:49:05;8.60;99.90
25450;DHT22;13371;52.080;5.624;2023-12-14T07:51:30;8.60;99.90
25450;DHT22;13371;52.080;5.624;2023-12-14T07:53:56;8.60;99.90
25450;DHT22;13371;52.080;5.624;2023-12-14T07:56:21;8.60;99.90
25450;DHT22;13371;52.080;5.624;2023-12-14T07:58:50;8.50;99.90
25450;DHT22;13371;52.080;5.624;2023-12-14T08:01:16;8.30;99.90
25450;DHT22;13371;52.080;5.624;2023-12-14T08:03:41;7.80;99.90
25450;DHT22;13371;52.080;5.624;2023-12-14T08:06:07;7.30;99.90
25450;DHT22;13371;52.080;5.624;2023-12-14T08:08:33;7.30;99.90
25450;DHT22;13371;52.080;5.624;2023-12-14T08:10:58;7.20;99.90
25450;DHT22;13371;52.080;5.624;2023-12-14T08:13:24;7.50;99.90
25450;DHT22;13371;52.080;5.624;2023-12-14T08:15:49;7.80;99.90
25450;DHT22;13371;52.080;5.624;2023-12-14T08:18:15;8.10;99.90
25450;DHT22;13371;52.080;5.624;2023-12-14T08:20:40;8.10;99.90
25450;DHT22;13371;52.080;5.624;2023-12-14T08:23:06;8.30;99.90
25450;DHT22;13371;52.080;5.624;2023-12-14T08:25:32;8.50;99.90
25450;DHT22;13371;52.080;5.624;2023-12-14T08:27:57;8.60;99.90
25450;DHT22;13371;52.080;5.624;2023-12-14T08:30:23;8.50;99.90
25450;DHT22;13371;52.080;5.624;2023-12-14T08:32:49;8.70;99.90
25450;DHT22;13371;52.080;5.624;2023-12-14T08:35:14;8.80;99.90
25450;DHT22;13371;52.080;5.624;2023-12-14T08:37:40;8.80;99.90
25450;DHT22;13371;52.080;5.624;2023-12-14T08:40:06;8.70;99.90
25450;DHT22;13371;52.080;5.624;2023-12-14T08:42:32;8.90;99.90
25450;DHT22;13371;52.080;5.624;2023-12-14T08:44:58;8.90;99.90
25450;DHT22;13371;52.080;5.624;2023-12-14T08:47:23;9.20;99.90
25450;DHT22;13371;52.080;5.624;2023-12-14T08:49:49;9.00;99.90
25450;DHT22;13371;52.080;5.624;2023-12-14T08:52:15;9.10;99.90
25450;DHT22;13371;52.080;5.624;2023-12-14T08:54:40;9.10;99.90
25450;DHT22;13371;52.080;5.624;2023-12-14T08:57:08;9.20;99.90
25450;DHT22;13371;52.080;5.624;2023-12-14T08:59:34;9.20;99.90
25450;DHT22;13371;52.080;5.624;2023-12-14T09:01:59;9.00;99.90
25450;DHT22;13371;52.080;5.624;2023-12-14T09:04:25;9.00;99.90
25450;DHT22;13371;52.080;5.624;2023-12-14T09:06:52;9.00;99.90
25450;DHT22;13371;52.080;5.624;2023-12-14T09:09:18;9.10;99.90
25450;DHT22;13371;52.080;5.624;2023-12-14T09:11:44;9.00;99.90
25450;DHT22;13371;52.080;5.624;2023-12-14T09:14:10;9.00;99.90
25450;DHT22;13371;52.080;5.624;2023-12-14T09:16:35;8.80;99.90
25450;DHT22;13371;52.080;5.624;2023-12-14T09:19:01;8.80;99.90
25450;DHT22;13371;52.080;5.624;2023-12-14T09:21:26;8.60;99.90
25450;DHT22;13371;52.080;5.624;2023-12-14T09:23:52;8.50;99.90
25450;DHT22;13371;52.080;5.624;2023-12-14T09:26:20;8.40;99.90
25450;DHT22;13371;52.080;5.624;2023-12-14T09:28:46;8.30;99.90
25450;DHT22;13371;52.080;5.624;2023-12-14T09:31:11;8.60;99.90
25450;DHT22;13371;52.080;5.624;2023-12-14T09:33:37;8.80;99.90
25450;DHT22;13371;52.080;5.624;2023-12-14T09:36:03;8.90;99.90
25450;DHT22;13371;52.080;5.624;2023-12-14T09:38:28;9.00;99.90
25450;DHT22;13371;52.080;5.624;2023-12-14T09:40:54;9.20;99.90
25450;DHT22;13371;52.080;5.624;2023-12-14T09:43:19;9.30;99.90
25450;DHT22;13371;52.080;5.624;2023-12-14T09:45:47;9.40;99.90
25450;DHT22;13371;52.080;5.624;2023-12-14T09:48:15;9.40;99.90
25450;DHT22;13371;52.080;5.624;2023-12-14T09:50:41;9.30;99.90
25450;DHT22;13371;52.080;5.624;2023-12-14T09:53:07;9.30;99.90
25450;DHT22;13371;52.080;5.624;2023-12-14T09:55:33;9.30;99.90
25450;DHT22;13371;52.080;5.624;2023-12-14T09:57:59;9.30;99.90
25450;DHT22;13371;52.080;5.624;2023-12-14T10:00:36;9.30;99.90
25450;DHT22;13371;52.080;5.624;2023-12-14T10:03:23;9.30;99.90
25450;DHT22;13371;52.080;5.624;2023-12-14T10:05:52;9.30;99.90
25450;DHT22;13371;52.080;5.624;2023-12-14T10:08:18;9.20;99.90
25450;DHT22;13371;52.080;5.624;2023-12-14T10:10:49;9.30;99.90
25450;DHT22;13371;52.080;5.624;2023-12-14T10:13:16;9.30;99.90
25450;DHT22;13371;52.080;5.624;2023-12-14T10:15:43;9.40;99.90
25450;DHT22;13371;52.080;5.624;2023-12-14T10:18:09;9.40;99.90
25450;DHT22;13371;52.080;5.624;2023-12-14T10:20:35;9.50;99.90
25450;DHT22;13371;52.080;5.624;2023-12-14T10:23:04;9.50;99.90
25450;DHT22;13371;52.080;5.624;2023-12-14T10:25:29;9.50;99.90
25450;DHT22;13371;52.080;5.624;2023-12-14T10:27:57;9.40;99.90
25450;DHT22;13371;52.080;5.624;2023-12-14T10:30:22;8.90;99.90
25450;DHT22;13371;52.080;5.624;2023-12-14T10:32:49;8.90;99.90
25450;DHT22;13371;52.080;5.624;2023-12-14T10:35:16;9.00;99.90
25450;DHT22;13371;52.080;5.624;2023-12-14T10:37:42;9.00;99.90
25450;DHT22;13371;52.080;5.624;2023-12-14T10:40:09;8.90;99.90
25450;DHT22;13371;52.080;5.624;2023-12-14T10:42:39;9.00;99.90
25450;DHT22;13371;52.080;5.624;2023-12-14T10:45:08;9.10;99.90
25450;DHT22;13371;52.080;5.624;2023-12-14T10:47:37;9.10;99.90
25450;DHT22;13371;52.080;5.624;2023-12-14T10:50:03;9.00;99.90
25450;DHT22;13371;52.080;5.624;2023-12-14T10:52:31;9.10;99.90
25450;DHT22;13371;52.080;5.624;2023-12-14T10:55:09;9.20;99.90
25450;DHT22;13371;52.080;5.624;2023-12-14T10:57:36;9.10;99.90
25450;DHT22;13371;52.080;5.624;2023-12-14T11:00:03;9.20;99.90
25450;DHT22;13371;52.080;5.624;2023-12-14T11:02:30;9.10;99.90
25450;DHT22;13371;52.080;5.624;2023-12-14T11:05:02;9.20;99.90
25450;DHT22;13371;52.080;5.624;2023-12-14T11:07:47;9.40;99.90
25450;DHT22;13371;52.080;5.624;2023-12-14T11:10:14;9.10;99.90
25450;DHT22;13371;52.080;5.624;2023-12-14T11:13:06;8.90;99.90
25450;DHT22;13371;52.080;5.624;2023-12-14T11:15:35;8.80;99.90
25450;DHT22;13371;52.080;5.624;2023-12-14T11:23:11;9.30;99.90
25450;DHT22;13371;52.080;5.624;2023-12-14T11:25:40;9.50;99.90
25450;DHT22;13371;52.080;5.624;2023-12-14T11:28:06;9.70;99.90
25450;DHT22;13371;52.080;5.624;2023-12-14T11:30:34;9.70;99.90
25450;DHT22;13371;52.080;5.624;2023-12-14T11:33:00;9.90;99.90
25450;DHT22;13371;52.080;5.624;2023-12-14T11:35:26;9.90;99.90
25450;DHT22;13371;52.080;5.624;2023-12-14T11:37:51;9.80;99.90
25450;DHT22;13371;52.080;5.624;2023-12-14T11:40:17;9.90;99.90
25450;DHT22;13371;52.080;5.624;2023-12-14T11:43:00;10.00;99.90
25450;DHT22;13371;52.080;5.624;2023-12-14T11:45:27;9.90;99.90
25450;DHT22;13371;52.080;5.624;2023-12-14T11:47:53;10.20;99.90
25450;DHT22;13371;52.080;5.624;2023-12-14T11:50:19;10.20;99.90
25450;DHT22;13371;52.080;5.624;2023-12-14T11:52:45;10.20;99.90
25450;DHT22;13371;52.080;5.624;2023-12-14T11:55:11;10.20;99.90
25450;DHT22;13371;52.080;5.624;2023-12-14T11:57:37;10.20;99.90
25450;DHT22;13371;52.080;5.624;2023-12-14T12:00:02;10.20;99.90
25450;DHT22;13371;52.080;5.624;2023-12-14T12:02:29;10.30;99.90
25450;DHT22;13371;52.080;5.624;2023-12-14T12:04:55;10.30;99.90
25450;DHT22;13371;52.080;5.624;2023-12-14T12:07:21;10.30;99.90
25450;DHT22;13371;52.080;5.624;2023-12-14T12:09:47;10.40;99.90
25450;DHT22;13371;52.080;5.624;2023-12-14T12:12:12;10.30;99.90
25450;DHT22;13371;52.080;5.624;2023-12-14T12:14:39;10.60;99.90
25450;DHT22;13371;52.080;5.624;2023-12-14T12:17:06;10.60;99.90
25450;DHT22;13371;52.080;5.624;2023-12-14T12:19:36;10.80;99.90
25450;DHT22;13371;52.080;5.624;2023-12-14T12:22:02;10.90;99.90
25450;DHT22;13371;52.080;5.624;2023-12-14T12:24:28;10.60;99.90
25450;DHT22;13371;52.080;5.624;2023-12-14T12:26:54;10.60;99.90
25450;DHT22;13371;52.080;5.624;2023-12-14T12:29:21;10.70;99.90
25450;DHT22;13371;52.080;5.624;2023-12-14T12:31:47;10.60;99.90
25450;DHT22;13371;52.080;5.624;2023-12-14T12:34:12;10.90;99.90
25450;DHT22;13371;52.080;5.624;2023-12-14T12:36:38;10.90;99.90
25450;DHT22;13371;52.080;5.624;2023-12-14T12:39:04;10.90;99.90
25450;DHT22;13371;52.080;5.624;2023-12-14T12:41:34;10.80;99.90
25450;DHT22;13371;52.080;5.624;2023-12-14T12:44:00;10.70;99.90
25450;DHT22;13371;52.080;5.624;2023-12-14T12:46:35;10.60;99.90
25450;DHT22;13371;52.080;5.624;2023-12-14T12:49:01;10.50;99.90
25450;DHT22;13371;52.080;5.624;2023-12-14T12:51:28;10.40;99.90
25450;DHT22;13371;52.080;5.624;2023-12-14T12:53:55;10.40;99.90
25450;DHT22;13371;52.080;5.624;2023-12-14T12:56:21;10.30;99.90
25450;DHT22;13371;52.080;5.624;2023-12-14T12:58:46;10.10;99.90
25450;DHT22;13371;52.080;5.624;2023-12-14T13:01:14;10.20;99.90
25450;DHT22;13371;52.080;5.624;2023-12-14T13:03:39;10.40;99.90
25450;DHT22;13371;52.080;5.624;2023-12-14T13:06:05;10.40;99.90
25450;DHT22;13371;52.080;5.624;2023-12-14T13:08:30;10.50;99.90
25450;DHT22;13371;52.080;5.624;2023-12-14T13:10:56;10.40;99.90
25450;DHT22;13371;52.080;5.624;2023-12-14T13:13:21;10.40;99.90
25450;DHT22;13371;52.080;5.624;2023-12-14T13:15:48;10.30;99.90
25450;DHT22;13371;52.080;5.624;2023-12-14T13:18:13;10.30;99.90
25450;DHT22;13371;52.080;5.624;2023-12-14T13:20:42;10.30;99.90
25450;DHT22;13371;52.080;5.624;2023-12-14T13:23:07;10.20;99.90
25450;DHT22;13371;52.080;5.624;2023-12-14T13:25:33;10.20;99.90
25450;DHT22;13371;52.080;5.624;2023-12-14T13:27:59;10.20;99.90
25450;DHT22;13371;52.080;5.624;2023-12-14T13:30:24;10.20;99.90
25450;DHT22;13371;52.080;5.624;2023-12-14T13:32:50;10.10;99.90
25450;DHT22;13371;52.080;5.624;2023-12-14T13:35:16;10.20;99.90
25450;DHT22;13371;52.080;5.624;2023-12-14T13:37:42;10.10;99.90
25450;DHT22;13371;52.080;5.624;2023-12-14T13:40:07;10.20;99.90
25450;DHT22;13371;52.080;5.624;2023-12-14T13:42:35;10.30;99.90
25450;DHT22;13371;52.080;5.624;2023-12-14T13:45:00;10.20;99.90
25450;DHT22;13371;52.080;5.624;2023-12-14T13:47:26;10.40;99.90
25450;DHT22;13371;52.080;5.624;2023-12-14T13:49:52;10.30;99.90
25450;DHT22;13371;52.080;5.624;2023-12-14T13:52:18;10.30;99.90
25450;DHT22;13371;52.080;5.624;2023-12-14T13:54:44;10.20;99.90
25450;DHT22;13371;52.080;5.624;2023-12-14T13:57:09;10.20;99.90
25450;DHT22;13371;52.080;5.624;2023-12-14T13:59:35;10.30;99.90
25450;DHT22;13371;52.080;5.624;2023-12-14T14:02:00;10.40;99.90
25450;DHT22;13371;52.080;5.624;2023-12-14T14:04:26;10.30;99.90
25450;DHT22;13371;52.080;5.624;2023-12-14T14:06:51;10.10;99.90
25450;DHT22;13371;52.080;5.624;2023-12-14T14:09:17;10.10;99.90
25450;DHT22;13371;52.080;5.624;2023-12-14T14:11:42;10.20;99.90
25450;DHT22;13371;52.080;5.624;2023-12-14T14:14:12;10.30;99.90
25450;DHT22;13371;52.080;5.624;2023-12-14T14:16:38;10.30;99.90
25450;DHT22;13371;52.080;5.624;2023-12-14T14:19:03;10.10;99.90
25450;DHT22;13371;52.080;5.624;2023-12-14T14:21:29;9.70;99.90
25450;DHT22;13371;52.080;5.624;2023-12-14T14:23:55;9.80;99.90
25450;DHT22;13371;52.080;5.624;2023-12-14T14:26:21;9.70;99.90
25450;DHT22;13371;52.080;5.624;2023-12-14T14:28:46;9.80;99.90
25450;DHT22;13371;52.080;5.624;2023-12-14T14:31:12;9.70;99.90
25450;DHT22;13371;52.080;5.624;2023-12-14T14:33:37;9.60;99.90
25450;DHT22;13371;52.080;5.624;2023-12-14T14:36:03;9.60;99.90
25450;DHT22;13371;52.080;5.624;2023-12-14T14:38:31;9.80;99.90
25450;DHT22;13371;52.080;5.624;2023-12-14T14:40:57;9.80;99.90
25450;DHT22;13371;52.080;5.624;2023-12-14T14:43:22;9.80;99.90
25450;DHT22;13371;52.080;5.624;2023-12-14T14:45:48;9.80;99.90
25450;DHT22;13371;52.080;5.624;2023-12-14T14:48:14;10.00;99.90
25450;DHT22;13371;52.080;5.624;2023-12-14T14:50:39;10.10;99.90
25450;DHT22;13371;52.080;5.624;2023-12-14T14:53:05;10.30;99.90
25450;DHT22;13371;52.080;5.624;2023-12-14T14:55:30;10.30;99.90
25450;DHT22;13371;52.080;5.624;2023-12-14T14:57:57;10.10;99.90
25450;DHT22;13371;52.080;5.624;2023-12-14T15:00:22;10.10;99.90
25450;DHT22;13371;52.080;5.624;2023-12-14T15:02:48;10.00;99.90
25450;DHT22;13371;52.080;5.624;2023-12-14T15:05:14;9.90;99.90
25450;DHT22;13371;52.080;5.624;2023-12-14T15:07:39;9.70;99.90
25450;DHT22;13371;52.080;5.624;2023-12-14T15:10:06;9.40;99.90
25450;DHT22;13371;52.080;5.624;2023-12-14T15:12:31;9.30;99.90
25450;DHT22;13371;52.080;5.624;2023-12-14T15:14:57;9.20;99.90
25450;DHT22;13371;52.080;5.624;2023-12-14T15:17:23;9.20;99.90
25450;DHT22;13371;52.080;5.624;2023-12-14T15:19:49;9.20;99.90
25450;DHT22;13371;52.080;5.624;2023-12-14T15:22:15;9.20;99.90
25450;DHT22;13371;52.080;5.624;2023-12-14T15:24:41;9.10;99.90
25450;DHT22;13371;52.080;5.624;2023-12-14T15:27:06;9.10;99.90
25450;DHT22;13371;52.080;5.624;2023-12-14T15:29:32;9.20;99.90
25450;DHT22;13371;52.080;5.624;2023-12-14T15:31:58;9.20;99.90
25450;DHT22;13371;52.080;5.624;2023-12-14T15:34:23;9.20;99.90
25450;DHT22;13371;52.080;5.624;2023-12-14T15:36:49;9.30;99.90
25450;DHT22;13371;52.080;5.624;2023-12-14T15:39:14;9.20;99.90
25450;DHT22;13371;52.080;5.624;2023-12-14T15:41:40;9.30;99.90
25450;DHT22;13371;52.080;5.624;2023-12-14T15:44:06;9.60;99.90